sensor_id;sensor_type;location;lat;lon;timestamp;pressure;altitude;pressure_sealevel;temperature;humidity
25650;BME280;13505;45.196;5.696;2022-08-16T04:00:16;98538.16;;;19.72;70.37
25650;BME280;13505;45.196;5.696;2022-08-16T04:05:07;98546.44;;;19.79;69.61
25650;BME280;13505;45.196;5.696;2022-08-16T04:09:58;98534.59;;;19.82;69.64
25650;BME280;13505;45.196;5.696;2022-08-16T04:14:48;98542.78;;;19.70;69.99
25650;BME280;13505;45.196;5.696;2022-08-16T04:19:38;98536.50;;;19.42;71.21
25650;BME280;13505;45.196;5.696;2022-08-16T04:24:29;98547.34;;;19.10;71.91
25650;BME280;13505;45.196;5.696;2022-08-16T04:29:19;98552.28;;;19.15;72.20
25650;BME280;13505;45.196;5.696;2022-08-16T04:34:09;98541.31;;;19.28;71.66
25650;BME280;13505;45.196;5.696;2022-08-16T04:39:00;98545.38;;;19.42;71.23
25650;BME280;13505;45.196;5.696;2022-08-16T04:43:50;98545.81;;;19.28;72.49
25650;BME280;13505;45.196;5.696;2022-08-16T04:48:41;98558.31;;;19.37;72.39
25650;BME280;13505;45.196;5.696;2022-08-16T04:53:32;98565.34;;;19.48;72.62
25650;BME280;13505;45.196;5.696;2022-08-16T04:58:22;98581.13;;;19.61;71.56
25650;BME280;13505;45.196;5.696;2022-08-16T05:03:13;98574.34;;;19.57;71.86
25650;BME280;13505;45.196;5.696;2022-08-16T05:08:04;98577.44;;;19.62;70.72
25650;BME280;13505;45.196;5.696;2022-08-16T05:12:54;98576.75;;;19.60;70.95
25650;BME280;13505;45.196;5.696;2022-08-16T05:17:44;98579.44;;;19.50;70.56
25650;BME280;13505;45.196;5.696;2022-08-16T05:22:36;98571.00;;;19.45;70.00
25650;BME280;13505;45.196;5.696;2022-08-16T05:27:27;98575.09;;;19.39;70.00
25650;BME280;13505;45.196;5.696;2022-08-16T05:32:17;98580.28;;;19.50;69.75
25650;BME280;13505;45.196;5.696;2022-08-16T05:37:08;98587.44;;;19.70;68.91
25650;BME280;13505;45.196;5.696;2022-08-16T05:41:58;98590.81;;;19.62;69.99
25650;BME280;13505;45.196;5.696;2022-08-16T05:46:54;98580.78;;;19.93;69.15
25650;BME280;13505;45.196;5.696;2022-08-16T05:51:45;98583.91;;;20.27;68.22
25650;BME280;13505;45.196;5.696;2022-08-16T05:56:36;98574.81;;;20.66;66.91
25650;BME280;13505;45.196;5.696;2022-08-16T06:01:27;98590.66;;;20.87;65.62
25650;BME280;13505;45.196;5.696;2022-08-16T06:06:17;98591.22;;;21.09;64.05
25650;BME280;13505;45.196;5.696;2022-08-16T06:11:08;98590.53;;;21.25;63.01
25650;BME280;13505;45.196;5.696;2022-08-16T06:15:59;98591.00;;;21.20;64.25
25650;BME280;13505;45.196;5.696;2022-08-16T06:20:49;98587.56;;;21.46;63.75
25650;BME280;13505;45.196;5.696;2022-08-16T06:25:39;98594.13;;;21.33;64.24
25650;BME280;13505;45.196;5.696;2022-08-16T06:30:30;98596.41;;;21.46;63.52
25650;BME280;13505;45.196;5.696;2022-08-16T06:35:21;98591.78;;;21.75;62.81
25650;BME280;13505;45.196;5.696;2022-08-16T06:40:12;98592.34;;;22.05;61.67
25650;BME280;13505;45.196;5.696;2022-08-16T06:45:03;98596.19;;;22.37;59.69
25650;BME280;13505;45.196;5.696;2022-08-16T06:49:53;98595.69;;;22.07;61.15
25650;BME280;13505;45.196;5.696;2022-08-16T06:54:44;98590.31;;;22.07;60.65
25650;BME280;13505;45.196;5.696;2022-08-16T06:59:34;98583.16;;;22.51;58.78
25650;BME280;13505;45.196;5.696;2022-08-16T07:04:24;98575.28;;;23.09;56.36
25650;BME280;13505;45.196;5.696;2022-08-16T07:09:15;98584.38;;;23.33;55.62
25650;BME280;13505;45.196;5.696;2022-08-16T07:14:05;98576.00;;;23.52;54.30
25650;BME280;13505;45.196;5.696;2022-08-16T07:18:56;98564.31;;;23.93;53.43
25650;BME280;13505;45.196;5.696;2022-08-16T07:23:48;98566.66;;;24.05;53.15
25650;BME280;13505;45.196;5.696;2022-08-16T07:28:38;98565.22;;;24.34;51.25
25650;BME280;13505;45.196;5.696;2022-08-16T07:33:30;98566.53;;;24.46;52.11
25650;BME280;13505;45.196;5.696;2022-08-16T07:38:20;98555.78;;;24.78;50.37
25650;BME280;13505;45.196;5.696;2022-08-16T07:43:11;98570.91;;;25.11;49.79
25650;BME280;13505;45.196;5.696;2022-08-16T07:48:01;98571.63;;;24.41;50.81
25650;BME280;13505;45.196;5.696;2022-08-16T07:52:52;98561.25;;;25.16;48.91
25650;BME280;13505;45.196;5.696;2022-08-16T07:57:42;98562.16;;;25.08;49.71
25650;BME280;13505;45.196;5.696;2022-08-16T08:02:33;98562.34;;;25.07;48.85
25650;BME280;13505;45.196;5.696;2022-08-16T08:07:24;98564.53;;;25.73;47.88
25650;BME280;13505;45.196;5.696;2022-08-16T08:12:15;98560.19;;;26.32;46.48
25650;BME280;13505;45.196;5.696;2022-08-16T08:17:05;98544.47;;;25.53;47.56
25650;BME280;13505;45.196;5.696;2022-08-16T08:21:56;98554.19;;;25.62;46.82
25650;BME280;13505;45.196;5.696;2022-08-16T08:26:46;98554.66;;;25.81;47.13
25650;BME280;13505;45.196;5.696;2022-08-16T08:31:37;98555.22;;;26.06;45.23
25650;BME280;13505;45.196;5.696;2022-08-16T08:36:33;98548.75;;;27.04;43.22
25650;BME280;13505;45.196;5.696;2022-08-16T08:41:24;98552.69;;;25.74;45.27
25650;BME280;13505;45.196;5.696;2022-08-16T08:46:17;98549.31;;;26.63;43.77
25650;BME280;13505;45.196;5.696;2022-08-16T08:51:08;98539.81;;;26.67;44.23
25650;BME280;13505;45.196;5.696;2022-08-16T08:56:00;98532.25;;;27.42;42.93
25650;BME280;13505;45.196;5.696;2022-08-16T09:00:51;98523.03;;;27.94;41.15
25650;BME280;13505;45.196;5.696;2022-08-16T09:05:41;98525.81;;;27.22;42.49
25650;BME280;13505;45.196;5.696;2022-08-16T09:10:32;98518.06;;;27.62;41.21
25650;BME280;13505;45.196;5.696;2022-08-16T09:15:22;98523.72;;;28.38;40.21
25650;BME280;13505;45.196;5.696;2022-08-16T09:20:13;98513.09;;;28.01;41.03
25650;BME280;13505;45.196;5.696;2022-08-16T09:25:04;98509.28;;;29.13;39.66
25650;BME280;13505;45.196;5.696;2022-08-16T09:29:54;98503.00;;;28.99;40.08
25650;BME280;13505;45.196;5.696;2022-08-16T09:34:45;98495.72;;;29.40;38.68
25650;BME280;13505;45.196;5.696;2022-08-16T09:39:35;98499.81;;;28.75;39.14
25650;BME280;13505;45.196;5.696;2022-08-16T09:44:26;98499.25;;;29.41;38.48
25650;BME280;13505;45.196;5.696;2022-08-16T09:49:17;98494.06;;;29.32;38.96
25650;BME280;13505;45.196;5.696;2022-08-16T09:54:08;98492.34;;;29.78;37.89
25650;BME280;13505;45.196;5.696;2022-08-16T09:59:03;98480.28;;;30.27;36.71
25650;BME280;13505;45.196;5.696;2022-08-16T10:03:53;98477.94;;;30.83;35.81
25650;BME280;13505;45.196;5.696;2022-08-16T10:08:50;98472.59;;;31.27;34.43
25650;BME280;13505;45.196;5.696;2022-08-16T10:13:40;98464.38;;;30.76;33.51
25650;BME280;13505;45.196;5.696;2022-08-16T10:18:33;98467.91;;;31.78;33.01
25650;BME280;13505;45.196;5.696;2022-08-16T10:23:24;98449.66;;;32.16;31.92
25650;BME280;13505;45.196;5.696;2022-08-16T10:28:15;98436.66;;;32.91;31.14
25650;BME280;13505;45.196;5.696;2022-08-16T10:33:06;98436.72;;;33.15;30.56
25650;BME280;13505;45.196;5.696;2022-08-16T10:37:56;98435.44;;;32.14;30.52
25650;BME280;13505;45.196;5.696;2022-08-16T10:42:46;98429.09;;;32.93;31.19
25650;BME280;13505;45.196;5.696;2022-08-16T10:47:38;98431.59;;;33.43;29.66
25650;BME280;13505;45.196;5.696;2022-08-16T10:52:28;98429.81;;;33.72;28.69
25650;BME280;13505;45.196;5.696;2022-08-16T10:57:21;98418.25;;;32.44;30.15
25650;BME280;13505;45.196;5.696;2022-08-16T11:02:11;98427.78;;;33.08;30.83
25650;BME280;13505;45.196;5.696;2022-08-16T11:07:03;98417.00;;;31.53;32.69
25650;BME280;13505;45.196;5.696;2022-08-16T11:11:55;98409.34;;;32.49;31.69
25650;BME280;13505;45.196;5.696;2022-08-16T11:16:45;98415.22;;;31.47;31.44
25650;BME280;13505;45.196;5.696;2022-08-16T11:21:36;98408.00;;;32.82;28.60
25650;BME280;13505;45.196;5.696;2022-08-16T11:26:26;98410.53;;;32.22;30.60
25650;BME280;13505;45.196;5.696;2022-08-16T11:31:17;98405.72;;;33.33;29.17
25650;BME280;13505;45.196;5.696;2022-08-16T11:36:07;98402.06;;;32.73;30.56
25650;BME280;13505;45.196;5.696;2022-08-16T11:40:58;98394.13;;;33.79;28.15
25650;BME280;13505;45.196;5.696;2022-08-16T11:45:51;98377.09;;;34.30;27.26
25650;BME280;13505;45.196;5.696;2022-08-16T11:50:42;98374.50;;;34.86;27.86
25650;BME280;13505;45.196;5.696;2022-08-16T11:55:33;98368.53;;;35.06;27.55
25650;BME280;13505;45.196;5.696;2022-08-16T12:00:25;98368.81;;;35.27;26.62
25650;BME280;13505;45.196;5.696;2022-08-16T12:05:16;98363.84;;;35.24;26.58
25650;BME280;13505;45.196;5.696;2022-08-16T12:10:14;98351.59;;;35.71;25.53
25650;BME280;13505;45.196;5.696;2022-08-16T12:15:07;98346.53;;;36.08;24.56
25650;BME280;13505;45.196;5.696;2022-08-16T12:20:01;98348.97;;;35.82;24.75
25650;BME280;13505;45.196;5.696;2022-08-16T12:24:52;98339.91;;;35.81;25.07
25650;BME280;13505;45.196;5.696;2022-08-16T12:29:43;98327.50;;;35.73;25.51
25650;BME280;13505;45.196;5.696;2022-08-16T12:34:33;98334.91;;;36.00;24.64
25650;BME280;13505;45.196;5.696;2022-08-16T12:39:25;98322.88;;;36.29;24.20
25650;BME280;13505;45.196;5.696;2022-08-16T12:44:15;98311.78;;;36.51;24.40
25650;BME280;13505;45.196;5.696;2022-08-16T12:49:07;98308.53;;;36.54;23.67
25650;BME280;13505;45.196;5.696;2022-08-16T12:54:02;98306.09;;;36.25;24.32
25650;BME280;13505;45.196;5.696;2022-08-16T12:58:54;98305.47;;;35.68;24.30
25650;BME280;13505;45.196;5.696;2022-08-16T13:03:45;98309.75;;;35.37;25.51
25650;BME280;13505;45.196;5.696;2022-08-16T13:08:36;98293.25;;;35.54;24.98
25650;BME280;13505;45.196;5.696;2022-08-16T13:13:26;98302.13;;;35.16;24.85
25650;BME280;13505;45.196;5.696;2022-08-16T13:18:16;98300.47;;;34.81;25.66
25650;BME280;13505;45.196;5.696;2022-08-16T13:23:10;98294.69;;;34.60;26.79
25650;BME280;13505;45.196;5.696;2022-08-16T13:28:01;98285.56;;;34.72;26.21
25650;BME280;13505;45.196;5.696;2022-08-16T13:32:52;98278.34;;;34.31;27.36
25650;BME280;13505;45.196;5.696;2022-08-16T13:37:42;98276.47;;;34.03;28.05
25650;BME280;13505;45.196;5.696;2022-08-16T13:42:32;98277.66;;;33.78;27.20
25650;BME280;13505;45.196;5.696;2022-08-16T13:47:24;98276.19;;;33.58;27.93
25650;BME280;13505;45.196;5.696;2022-08-16T13:52:14;98278.31;;;33.44;27.96
25650;BME280;13505;45.196;5.696;2022-08-16T13:57:04;98277.44;;;33.26;28.39
25650;BME280;13505;45.196;5.696;2022-08-16T14:01:56;98289.09;;;33.10;29.11
25650;BME280;13505;45.196;5.696;2022-08-16T14:06:50;98283.63;;;32.74;29.84
25650;BME280;13505;45.196;5.696;2022-08-16T14:11:41;98278.53;;;32.66;30.31
25650;BME280;13505;45.196;5.696;2022-08-16T14:16:32;98278.88;;;32.46;30.67
25650;BME280;13505;45.196;5.696;2022-08-16T14:21:22;98267.38;;;32.43;30.75
25650;BME280;13505;45.196;5.696;2022-08-16T14:26:13;98266.91;;;32.47;30.63
25650;BME280;13505;45.196;5.696;2022-08-16T14:31:03;98253.75;;;32.79;30.49
25650;BME280;13505;45.196;5.696;2022-08-16T14:35:54;98246.75;;;33.36;29.90
25650;BME280;13505;45.196;5.696;2022-08-16T14:40:45;98235.34;;;33.39;29.66
25650;BME280;13505;45.196;5.696;2022-08-16T14:45:36;98235.34;;;33.39;29.94
25650;BME280;13505;45.196;5.696;2022-08-16T14:50:26;98231.34;;;33.30;30.22
25650;BME280;13505;45.196;5.696;2022-08-16T14:55:17;98230.53;;;33.18;29.97
25650;BME280;13505;45.196;5.696;2022-08-16T15:00:10;98223.56;;;33.10;30.39
25650;BME280;13505;45.196;5.696;2022-08-16T15:05:02;98224.06;;;32.95;31.63
25650;BME280;13505;45.196;5.696;2022-08-16T15:09:53;98219.69;;;32.94;31.63
25650;BME280;13505;45.196;5.696;2022-08-16T15:14:45;98214.34;;;32.99;31.35
25650;BME280;13505;45.196;5.696;2022-08-16T15:19:37;98219.91;;;32.92;31.30
25650;BME280;13505;45.196;5.696;2022-08-16T15:24:28;98222.28;;;32.77;31.72
25650;BME280;13505;45.196;5.696;2022-08-16T15:29:19;98219.31;;;32.54;32.23
25650;BME280;13505;45.196;5.696;2022-08-16T15:34:10;98214.34;;;32.39;32.88
25650;BME280;13505;45.196;5.696;2022-08-16T15:39:01;98209.72;;;32.40;32.42
25650;BME280;13505;45.196;5.696;2022-08-16T15:43:52;98207.34;;;32.67;32.04
25650;BME280;13505;45.196;5.696;2022-08-16T15:48:42;98193.31;;;32.88;32.20
25650;BME280;13505;45.196;5.696;2022-08-16T15:53:33;98180.66;;;32.93;32.42
25650;BME280;13505;45.196;5.696;2022-08-16T15:58:24;98186.19;;;32.86;32.86
25650;BME280;13505;45.196;5.696;2022-08-16T16:03:17;98193.69;;;32.79;33.21
25650;BME280;13505;45.196;5.696;2022-08-16T16:08:09;98180.91;;;32.56;33.59
25650;BME280;13505;45.196;5.696;2022-08-16T16:13:01;98180.19;;;32.61;32.96
25650;BME280;13505;45.196;5.696;2022-08-16T16:17:53;98177.94;;;32.57;33.13
25650;BME280;13505;45.196;5.696;2022-08-16T16:22:44;98185.31;;;32.45;34.44
25650;BME280;13505;45.196;5.696;2022-08-16T16:27:34;98182.22;;;32.41;34.49
25650;BME280;13505;45.196;5.696;2022-08-16T16:32:25;98185.53;;;32.43;34.48
25650;BME280;13505;45.196;5.696;2022-08-16T16:37:15;98179.56;;;32.23;34.43
25650;BME280;13505;45.196;5.696;2022-08-16T16:42:06;98177.75;;;31.93;35.14
25650;BME280;13505;45.196;5.696;2022-08-16T16:46:56;98176.94;;;31.61;35.67
25650;BME280;13505;45.196;5.696;2022-08-16T16:51:46;98174.91;;;31.45;35.35
25650;BME280;13505;45.196;5.696;2022-08-16T16:56:37;98174.06;;;31.44;35.09
25650;BME280;13505;45.196;5.696;2022-08-16T17:01:32;98169.84;;;31.11;35.50
25650;BME280;13505;45.196;5.696;2022-08-16T17:06:22;98172.97;;;31.15;35.67
25650;BME280;13505;45.196;5.696;2022-08-16T17:11:13;98174.47;;;31.11;35.82
25650;BME280;13505;45.196;5.696;2022-08-16T17:16:05;98169.78;;;30.99;36.79
25650;BME280;13505;45.196;5.696;2022-08-16T17:20:55;98162.84;;;31.03;35.86
25650;BME280;13505;45.196;5.696;2022-08-16T17:25:45;98164.78;;;31.15;36.21
25650;BME280;13505;45.196;5.696;2022-08-16T17:30:36;98175.47;;;30.98;36.98
25650;BME280;13505;45.196;5.696;2022-08-16T17:35:30;98173.44;;;30.93;38.19
25650;BME280;13505;45.196;5.696;2022-08-16T17:40:25;98179.56;;;30.88;38.30
25650;BME280;13505;45.196;5.696;2022-08-16T17:45:16;98187.56;;;30.65;39.37
25650;BME280;13505;45.196;5.696;2022-08-16T17:50:06;98184.06;;;30.57;38.17
25650;BME280;13505;45.196;5.696;2022-08-16T17:54:57;98195.75;;;30.58;37.47
25650;BME280;13505;45.196;5.696;2022-08-16T17:59:47;98197.88;;;30.56;36.99
25650;BME280;13505;45.196;5.696;2022-08-16T18:04:39;98219.91;;;30.47;37.03
25650;BME280;13505;45.196;5.696;2022-08-16T18:09:29;98227.81;;;30.30;37.63
25650;BME280;13505;45.196;5.696;2022-08-16T18:14:19;98237.19;;;30.09;39.13
25650;BME280;13505;45.196;5.696;2022-08-16T18:19:10;98225.75;;;29.93;39.02
25650;BME280;13505;45.196;5.696;2022-08-16T18:24:01;98253.03;;;29.80;38.83
25650;BME280;13505;45.196;5.696;2022-08-16T18:28:51;98240.84;;;29.57;39.30
25650;BME280;13505;45.196;5.696;2022-08-16T18:33:42;98231.69;;;29.51;39.47
25650;BME280;13505;45.196;5.696;2022-08-16T18:38:32;98225.03;;;29.34;39.78
25650;BME280;13505;45.196;5.696;2022-08-16T18:43:23;98239.25;;;29.29;39.02
25650;BME280;13505;45.196;5.696;2022-08-16T18:48:14;98245.78;;;29.21;39.58
25650;BME280;13505;45.196;5.696;2022-08-16T18:53:08;98276.50;;;29.08;39.82
25650;BME280;13505;45.196;5.696;2022-08-16T18:57:59;98286.97;;;28.98;40.33
25650;BME280;13505;45.196;5.696;2022-08-16T19:02:50;98278.22;;;28.82;41.05
25650;BME280;13505;45.196;5.696;2022-08-16T19:07:40;98293.22;;;28.72;41.44
25650;BME280;13505;45.196;5.696;2022-08-16T19:12:31;98297.19;;;28.62;41.68
25650;BME280;13505;45.196;5.696;2022-08-16T19:17:21;98309.53;;;28.51;42.11
25650;BME280;13505;45.196;5.696;2022-08-16T19:22:11;98307.84;;;28.37;42.56
25650;BME280;13505;45.196;5.696;2022-08-16T19:27:02;98319.50;;;28.24;42.69
25650;BME280;13505;45.196;5.696;2022-08-16T19:31:52;98328.22;;;28.12;43.65
25650;BME280;13505;45.196;5.696;2022-08-16T19:36:42;98333.81;;;28.04;43.34
25650;BME280;13505;45.196;5.696;2022-08-16T19:41:34;98350.69;;;27.99;43.30
25650;BME280;13505;45.196;5.696;2022-08-16T19:46:25;98343.78;;;27.90;43.63
25650;BME280;13505;45.196;5.696;2022-08-16T19:51:16;98349.81;;;27.85;43.48
25650;BME280;13505;45.196;5.696;2022-08-16T19:56:06;98373.56;;;27.83;43.32
25650;BME280;13505;45.196;5.696;2022-08-16T20:00:57;98403.16;;;27.78;43.34
25650;BME280;13505;45.196;5.696;2022-08-16T20:05:48;98411.22;;;27.71;43.37
25650;BME280;13505;45.196;5.696;2022-08-16T20:10:41;98413.44;;;27.61;43.89
25650;BME280;13505;45.196;5.696;2022-08-16T20:15:34;98417.34;;;27.52;44.25
25650;BME280;13505;45.196;5.696;2022-08-16T20:20:26;98424.78;;;27.43;44.19
25650;BME280;13505;45.196;5.696;2022-08-16T20:25:24;98434.97;;;27.41;44.19
25650;BME280;13505;45.196;5.696;2022-08-16T20:30:15;98432.72;;;27.44;43.69
25650;BME280;13505;45.196;5.696;2022-08-16T20:35:07;98443.09;;;27.41;43.92
25650;BME280;13505;45.196;5.696;2022-08-16T20:39:59;98453.09;;;27.40;43.87
25650;BME280;13505;45.196;5.696;2022-08-16T20:44:51;98462.00;;;27.34;43.94
25650;BME280;13505;45.196;5.696;2022-08-16T20:49:42;98469.44;;;27.25;44.45
25650;BME280;13505;45.196;5.696;2022-08-16T20:54:33;98469.00;;;27.22;44.07
25650;BME280;13505;45.196;5.696;2022-08-16T20:59:23;98469.19;;;27.20;43.90
25650;BME280;13505;45.196;5.696;2022-08-16T21:04:14;98461.25;;;27.19;44.87
25650;BME280;13505;45.196;5.696;2022-08-16T21:09:05;98477.06;;;27.15;45.47
25650;BME280;13505;45.196;5.696;2022-08-16T21:13:56;98483.06;;;27.10;45.26
25650;BME280;13505;45.196;5.696;2022-08-16T21:18:46;98484.34;;;27.14;44.95
25650;BME280;13505;45.196;5.696;2022-08-16T21:23:37;98494.47;;;27.06;45.53
25650;BME280;13505;45.196;5.696;2022-08-16T21:28:28;98499.16;;;26.97;45.65
25650;BME280;13505;45.196;5.696;2022-08-16T21:33:19;98513.53;;;26.97;45.59
25650;BME280;13505;45.196;5.696;2022-08-16T21:38:10;98509.78;;;26.98;45.57
25650;BME280;13505;45.196;5.696;2022-08-16T21:43:14;98502.06;;;26.95;47.54
25650;BME280;13505;45.196;5.696;2022-08-16T21:48:05;98499.53;;;26.94;49.05
25650;BME280;13505;45.196;5.696;2022-08-16T21:53:14;98504.50;;;26.90;50.46
25650;BME280;13505;45.196;5.696;2022-08-16T21:58:05;98503.03;;;26.87;50.89
